Jonni Ritscher — A8JT7 — position and weather

sailwx.info

Track history (hours):
 
Tides and Currents Weather Stations Pressure Air Temp Water Temp Dewpoint Dewpoint Depression Visibility Wind Speed Wind Dir Waves Ship Positions

Jonni Ritscher

Last reported at 2014-Oct-24 22:30 UTC. Time now 2014-Oct-25 00:04 UTC.
Position N 53°46' E 006°26'.

Length 178 m; draft 9.2 m.

Type: Ship. MMSI: 636091136.

Date/timePositionNaut miles runAvg speedWind from/ knotsBaromVisibWave heightAir tempDewpointWater temp
2014-Oct-24 22:30N 53°46' E 006°26'1718.3
2014-Oct-24 21:33N 53°41' E 005°58'1918.7
2014-Oct-24 20:33N 53°34' E 005°28'1918.9
2014-Oct-24 19:33N 53°28' E 004°58'1817.6
2014-Oct-24 18:33N 53°16' E 004°37'5618.6
2014-Oct-24 15:32N 52°26' E 003°53'1818.4
2014-Oct-24 14:33N 52°08' E 003°54'1212.5
2014-Oct-24 13:33N 51°58' E 004°05'1 1.2
2014-Oct-24 12:33N 51°57' E 004°04'0 0.0
2014-Oct-24 11:33N 51°57' E 004°04'0 0.0
2014-Oct-24 10:33N 51°57' E 004°04'0 0.0
2014-Oct-24 09:33N 51°57' E 004°04'0 0.0
2014-Oct-24 08:29N 51°57' E 004°04'0 0.0
2014-Oct-24 07:32N 51°57' E 004°04'0 0.0
2014-Oct-24 06:31N 51°57' E 004°04'0 0.0
2014-Oct-24 05:31N 51°57' E 004°04'0 0.0
2014-Oct-24 04:33N 51°57' E 004°04'0 0.0
2014-Oct-24 03:33N 51°57' E 004°04'0 0.0
2014-Oct-24 02:33N 51°57' E 004°04'0 0.0
2014-Oct-24 01:32N 51°57' E 004°04'0 0.0
2014-Oct-24 00:33N 51°57' E 004°04'1 0.5
2014-Oct-23 23:33N 51°57' E 004°05'6 5.7
2014-Oct-23 22:33N 52°00' E 003°57'10 9.9
2014-Oct-23 21:33N 51°57' E 003°42'7 6.9
2014-Oct-23 20:33N 51°54' E 003°32'0 0.1
2014-Oct-23 19:32N 51°54' E 003°32'0 0.0
2014-Oct-23 17:25N 51°54' E 003°32'0 0.0
2014-Oct-23 15:12N 51°54' E 003°32'0 0.0
2014-Oct-23 14:33N 51°54' E 003°32'5 3.8
2014-Oct-23 13:20N 51°55' E 003°24'3016.8
2014-Oct-23 11:33N 51°38' E 002°44'1616.4
2014-Oct-23 10:34N 51°22' E 002°46'1514.4
2014-Oct-23 09:31N 51°23' E 003°10'3 2.9
2014-Oct-23 08:33N 51°20' E 003°12'0 0.0
2014-Oct-23 07:32N 51°20' E 003°12'0 0.0
2014-Oct-23 06:23N 51°20' E 003°12'0 0.0
2014-Oct-23 05:32N 51°20' E 003°12'0 0.0
2014-Oct-23 04:13N 51°20' E 003°12'0 0.0
2014-Oct-23 03:22N 51°20' E 003°12'0 0.0
2014-Oct-23 02:27N 51°20' E 003°12'0 0.0
2014-Oct-23 01:30N 51°20' E 003°12'0 0.0
2014-Oct-23 00:32N 51°20' E 003°12'0 0.0
2014-Oct-22 23:26N 51°20' E 003°12'0 0.0
2014-Oct-22 22:29N 51°20' E 003°12'0 0.0
2014-Oct-22 21:25N 51°20' E 003°12'0 0.0
2014-Oct-22 20:31N 51°20' E 003°12'0 0.0
2014-Oct-22 19:33N 51°20' E 003°12'0 0.0
2014-Oct-22 18:33N 51°20' E 003°12'0 0.0
2014-Oct-22 17:33N 51°20' E 003°12'0 0.0
2014-Oct-22 16:34N 51°20' E 003°12'0 0.0
2014-Oct-22 15:33N 51°20' E 003°12'0 0.0
2014-Oct-22 14:34N 51°20' E 003°12'0 0.3
2014-Oct-22 13:33N 51°20' E 003°12'1010.1
2014-Oct-22 12:34N 51°23' E 002°56'9 8.6
2014-Oct-22 11:33N 51°27' E 002°44'3 2.9
2014-Oct-22 10:33N 51°30' E 002°42'4 3.7
2014-Oct-22 09:33N 51°27' E 002°40'2 2.2
2014-Oct-22 08:29N 51°29' E 002°39'1 1.3
2014-Oct-22 07:33N 51°28' E 002°40'1 0.6
2014-Oct-22 06:24N 51°28' E 002°41'2 1.8
2014-Oct-22 05:33N 51°29' E 002°42'3 3.5
2014-Oct-22 04:33N 51°26' E 002°43'2 1.8
2014-Oct-22 03:32N 51°27' E 002°43'2 1.5
2014-Oct-22 02:23N 51°29' E 002°42'1 1.3
2014-Oct-22 01:30N 51°30' E 002°41'5 5.6
2014-Oct-22 00:31N 51°28' E 002°49'2 2.2
2014-Oct-21 23:33N 51°28' E 002°46'2 2.2
2014-Oct-21 22:32N 51°29' E 002°42'1 1.4
2014-Oct-21 21:33N 51°28' E 002°40'4 4.2
2014-Oct-21 20:33N 51°25' E 002°43'2 2.0
2014-Oct-21 19:32N 51°26' E 002°41'1 1.3
2014-Oct-21 18:33N 51°27' E 002°40'2 1.8
2014-Oct-21 17:32N 51°26' E 002°37'0 0.4
2014-Oct-21 16:23N 51°26' E 002°37'4 4.3
2014-Oct-21 15:30N 51°29' E 002°41'1 1.5
2014-Oct-21 14:33N 51°30' E 002°40'1 0.7
2014-Oct-21 13:32N 51°30' E 002°41'0 0.4
2014-Oct-21 12:33N 51°30' E 002°42'4 3.9
2014-Oct-21 11:33N 51°34' E 002°42'1313.0
2014-Oct-21 10:33N 51°47' E 002°44'11215.5
2014-Oct-21 03:19N 53°19' E 004°29'1215.2
2014-Oct-21 02:31N 53°30' E 004°36'1515.7
2014-Oct-21 01:33N 53°44' E 004°44'1616.3
2014-Oct-21 00:33N 54°00' E 004°52'1616.3
2014-Oct-20 23:33N 54°14' E 005°06'1716.5
2014-Oct-20 22:32N 54°27' E 005°24'5016.2
2014-Oct-20 19:26N 55°09' E 006°12'1815.8
2014-Oct-20 18:17N 55°25' E 006°28'1115.5
2014-Oct-20 17:33N 55°35' E 006°37'8315.6
2014-Oct-20 12:16N 56°47' E 007°51'3014.4
2014-Oct-20 10:12N 57°12' E 008°18'5614.3
2014-Oct-20 06:16N 57°45' E 009°43'1115.1
2014-Oct-20 05:33N 57°50' E 010°01'1514.9
2014-Oct-20 04:34N 57°50' E 010°29'1413.7
2014-Oct-20 03:33N 57°45' E 010°52'1615.7
2014-Oct-20 02:34N 57°34' E 011°14'1616.2
2014-Oct-20 01:33N 57°20' E 011°31'1717.3
2014-Oct-20 00:33N 57°04' E 011°41'1717.2
2014-Oct-19 23:33N 56°48' E 011°53'1616.6
2014-Oct-19 22:33N 56°33' E 011°42'11514.3
2014-Oct-19 14:30N 54°40' E 010°59'2116.7
2014-Oct-19 13:14N 54°30' E 011°31'1216.4
2014-Oct-19 12:32N 54°26' E 011°50'1414.5
2014-Oct-19 11:33N 54°30' E 012°13'6516.0
2014-Oct-19 07:29N 55°02' E 013°52'1515.8
2014-Oct-19 06:34N 55°11' E 014°12'1616.3
2014-Oct-19 05:33N 55°23' E 014°30'1615.9
2014-Oct-19 04:34N 55°32' E 014°53'1615.8
2014-Oct-19 03:33N 55°40' E 015°18'3115.6
2014-Oct-19 01:33N 55°55' E 016°06'1715.8
2014-Oct-19 00:29N 56°04' E 016°32'29916.2
2014-Oct-18 06:05N 59°36' E 023°06'917.1
2014-Oct-18 05:32N 59°39' E 023°24'1717.1
2014-Oct-18 04:33N 59°44' E 023°56'1717.3
2014-Oct-18 03:33N 59°48' E 024°29'2517.1
2014-Oct-18 02:05N 59°52' E 025°18'1016.9
2014-Oct-18 01:30N 59°54' E 025°38'1617.0
2014-Oct-18 00:32N 59°58' E 026°09'2016.6
2014-Oct-17 23:19N 60°00' E 026°49'102 6.7
2014-Oct-17 08:04N 59°53' E 030°13'0 0.0
2014-Oct-17 07:30N 59°53' E 030°13'0 0.0
2014-Oct-17 06:33N 59°53' E 030°13'0 0.1
2014-Oct-17 05:33N 59°53' E 030°13'0 0.1
2014-Oct-17 04:32N 59°53' E 030°13'0 0.0
2014-Oct-17 03:32N 59°53' E 030°13'1 0.2
2014-Oct-16 21:33N 59°53' E 030°12'0 0.0
2014-Oct-16 18:28N 59°53' E 030°12'0 0.0
2014-Oct-16 17:10N 59°53' E 030°12'0 0.0
2014-Oct-16 16:33N 59°53' E 030°12'0 0.0
2014-Oct-16 15:33N 59°53' E 030°12'0 0.0
2014-Oct-16 14:20N 59°53' E 030°12'0 0.0
2014-Oct-16 13:17N 59°53' E 030°12'0 0.0
2014-Oct-16 12:32N 59°53' E 030°12'0 0.1
2014-Oct-16 11:31N 59°53' E 030°12'0 0.0
2014-Oct-16 08:33N 59°53' E 030°12'0 0.0
2014-Oct-16 06:31N 59°53' E 030°12'0 0.0
2014-Oct-16 05:33N 59°53' E 030°12'0 0.0
2014-Oct-16 03:33N 59°53' E 030°12'1 0.8
2014-Oct-16 02:33N 59°53' E 030°10'8714.0
2014-Oct-15 20:21N 60°02' E 027°18'1215.2
2014-Oct-15 19:34N 59°58' E 026°55'1414.1
2014-Oct-15 18:33N 60°00' E 026°27'  
Track history (hours):
 
Tides and Currents Weather Stations Pressure Air Temp Water Temp Dewpoint Dewpoint Depression Visibility Wind Speed Wind Dir Waves Ship Positions

Jonni Ritscher

Last reported at 2014-Oct-24 22:30 UTC. Time now 2014-Oct-25 00:04 UTC.
Position N 53°46' E 006°26'.

Length 178 m; draft 9.2 m.

Type: Ship. MMSI: 636091136.

Date/timePositionNaut miles runAvg speedWind from/ knotsBaromVisibWave heightAir tempDewpointWater temp
2014-Oct-24 22:30N 53°46' E 006°26'1718.3
2014-Oct-24 21:33N 53°41' E 005°58'1918.7
2014-Oct-24 20:33N 53°34' E 005°28'1918.9
2014-Oct-24 19:33N 53°28' E 004°58'1817.6
2014-Oct-24 18:33N 53°16' E 004°37'5618.6
2014-Oct-24 15:32N 52°26' E 003°53'1818.4
2014-Oct-24 14:33N 52°08' E 003°54'1212.5
2014-Oct-24 13:33N 51°58' E 004°05'1 1.2
2014-Oct-24 12:33N 51°57' E 004°04'0 0.0
2014-Oct-24 11:33N 51°57' E 004°04'0 0.0
2014-Oct-24 10:33N 51°57' E 004°04'0 0.0
2014-Oct-24 09:33N 51°57' E 004°04'0 0.0
2014-Oct-24 08:29N 51°57' E 004°04'0 0.0
2014-Oct-24 07:32N 51°57' E 004°04'0 0.0
2014-Oct-24 06:31N 51°57' E 004°04'0 0.0
2014-Oct-24 05:31N 51°57' E 004°04'0 0.0
2014-Oct-24 04:33N 51°57' E 004°04'0 0.0
2014-Oct-24 03:33N 51°57' E 004°04'0 0.0
2014-Oct-24 02:33N 51°57' E 004°04'0 0.0
2014-Oct-24 01:32N 51°57' E 004°04'0 0.0
2014-Oct-24 00:33N 51°57' E 004°04'1 0.5
2014-Oct-23 23:33N 51°57' E 004°05'6 5.7
2014-Oct-23 22:33N 52°00' E 003°57'10 9.9
2014-Oct-23 21:33N 51°57' E 003°42'7 6.9
2014-Oct-23 20:33N 51°54' E 003°32'0 0.1
2014-Oct-23 19:32N 51°54' E 003°32'0 0.0
2014-Oct-23 17:25N 51°54' E 003°32'0 0.0
2014-Oct-23 15:12N 51°54' E 003°32'0 0.0
2014-Oct-23 14:33N 51°54' E 003°32'5 3.8
2014-Oct-23 13:20N 51°55' E 003°24'3016.8
2014-Oct-23 11:33N 51°38' E 002°44'1616.4
2014-Oct-23 10:34N 51°22' E 002°46'1514.4
2014-Oct-23 09:31N 51°23' E 003°10'3 2.9
2014-Oct-23 08:33N 51°20' E 003°12'0 0.0
2014-Oct-23 07:32N 51°20' E 003°12'0 0.0
2014-Oct-23 06:23N 51°20' E 003°12'0 0.0
2014-Oct-23 05:32N 51°20' E 003°12'0 0.0
2014-Oct-23 04:13N 51°20' E 003°12'0 0.0
2014-Oct-23 03:22N 51°20' E 003°12'0 0.0
2014-Oct-23 02:27N 51°20' E 003°12'0 0.0
2014-Oct-23 01:30N 51°20' E 003°12'0 0.0
2014-Oct-23 00:32N 51°20' E 003°12'0 0.0
2014-Oct-22 23:26N 51°20' E 003°12'0 0.0
2014-Oct-22 22:29N 51°20' E 003°12'0 0.0
2014-Oct-22 21:25N 51°20' E 003°12'0 0.0
2014-Oct-22 20:31N 51°20' E 003°12'0 0.0
2014-Oct-22 19:33N 51°20' E 003°12'0 0.0
2014-Oct-22 18:33N 51°20' E 003°12'0 0.0
2014-Oct-22 17:33N 51°20' E 003°12'0 0.0
2014-Oct-22 16:34N 51°20' E 003°12'0 0.0
2014-Oct-22 15:33N 51°20' E 003°12'0 0.0
2014-Oct-22 14:34N 51°20' E 003°12'0 0.3
2014-Oct-22 13:33N 51°20' E 003°12'1010.1
2014-Oct-22 12:34N 51°23' E 002°56'9 8.6
2014-Oct-22 11:33N 51°27' E 002°44'3 2.9
2014-Oct-22 10:33N 51°30' E 002°42'4 3.7
2014-Oct-22 09:33N 51°27' E 002°40'2 2.2
2014-Oct-22 08:29N 51°29' E 002°39'1 1.3
2014-Oct-22 07:33N 51°28' E 002°40'1 0.6
2014-Oct-22 06:24N 51°28' E 002°41'2 1.8
2014-Oct-22 05:33N 51°29' E 002°42'3 3.5
2014-Oct-22 04:33N 51°26' E 002°43'2 1.8
2014-Oct-22 03:32N 51°27' E 002°43'2 1.5
2014-Oct-22 02:23N 51°29' E 002°42'1 1.3
2014-Oct-22 01:30N 51°30' E 002°41'5 5.6
2014-Oct-22 00:31N 51°28' E 002°49'2 2.2
2014-Oct-21 23:33N 51°28' E 002°46'2 2.2
2014-Oct-21 22:32N 51°29' E 002°42'1 1.4
2014-Oct-21 21:33N 51°28' E 002°40'4 4.2
2014-Oct-21 20:33N 51°25' E 002°43'2 2.0
2014-Oct-21 19:32N 51°26' E 002°41'1 1.3
2014-Oct-21 18:33N 51°27' E 002°40'2 1.8
2014-Oct-21 17:32N 51°26' E 002°37'0 0.4
2014-Oct-21 16:23N 51°26' E 002°37'4 4.3
2014-Oct-21 15:30N 51°29' E 002°41'1 1.5
2014-Oct-21 14:33N 51°30' E 002°40'1 0.7
2014-Oct-21 13:32N 51°30' E 002°41'0 0.4
2014-Oct-21 12:33N 51°30' E 002°42'4 3.9
2014-Oct-21 11:33N 51°34' E 002°42'1313.0
2014-Oct-21 10:33N 51°47' E 002°44'11215.5
2014-Oct-21 03:19N 53°19' E 004°29'1215.2
2014-Oct-21 02:31N 53°30' E 004°36'1515.7
2014-Oct-21 01:33N 53°44' E 004°44'1616.3
2014-Oct-21 00:33N 54°00' E 004°52'1616.3
2014-Oct-20 23:33N 54°14' E 005°06'1716.5
2014-Oct-20 22:32N 54°27' E 005°24'5016.2
2014-Oct-20 19:26N 55°09' E 006°12'1815.8
2014-Oct-20 18:17N 55°25' E 006°28'1115.5
2014-Oct-20 17:33N 55°35' E 006°37'8315.6
2014-Oct-20 12:16N 56°47' E 007°51'3014.4
2014-Oct-20 10:12N 57°12' E 008°18'5614.3
2014-Oct-20 06:16N 57°45' E 009°43'1115.1
2014-Oct-20 05:33N 57°50' E 010°01'1514.9
2014-Oct-20 04:34N 57°50' E 010°29'1413.7
2014-Oct-20 03:33N 57°45' E 010°52'1615.7
2014-Oct-20 02:34N 57°34' E 011°14'1616.2
2014-Oct-20 01:33N 57°20' E 011°31'1717.3
2014-Oct-20 00:33N 57°04' E 011°41'1717.2
2014-Oct-19 23:33N 56°48' E 011°53'1616.6
2014-Oct-19 22:33N 56°33' E 011°42'11514.3
2014-Oct-19 14:30N 54°40' E 010°59'2116.7
2014-Oct-19 13:14N 54°30' E 011°31'1216.4
2014-Oct-19 12:32N 54°26' E 011°50'1414.5
2014-Oct-19 11:33N 54°30' E 012°13'6516.0
2014-Oct-19 07:29N 55°02' E 013°52'1515.8
2014-Oct-19 06:34N 55°11' E 014°12'1616.3
2014-Oct-19 05:33N 55°23' E 014°30'1615.9
2014-Oct-19 04:34N 55°32' E 014°53'1615.8
2014-Oct-19 03:33N 55°40' E 015°18'3115.6
2014-Oct-19 01:33N 55°55' E 016°06'1715.8
2014-Oct-19 00:29N 56°04' E 016°32'29916.2
2014-Oct-18 06:05N 59°36' E 023°06'917.1
2014-Oct-18 05:32N 59°39' E 023°24'1717.1
2014-Oct-18 04:33N 59°44' E 023°56'1717.3
2014-Oct-18 03:33N 59°48' E 024°29'2517.1
2014-Oct-18 02:05N 59°52' E 025°18'1016.9
2014-Oct-18 01:30N 59°54' E 025°38'1617.0
2014-Oct-18 00:32N 59°58' E 026°09'2016.6
2014-Oct-17 23:19N 60°00' E 026°49'102 6.7
2014-Oct-17 08:04N 59°53' E 030°13'0 0.0
2014-Oct-17 07:30N 59°53' E 030°13'0 0.0
2014-Oct-17 06:33N 59°53' E 030°13'0 0.1
2014-Oct-17 05:33N 59°53' E 030°13'0 0.1
2014-Oct-17 04:32N 59°53' E 030°13'0 0.0
2014-Oct-17 03:32N 59°53' E 030°13'1 0.2
2014-Oct-16 21:33N 59°53' E 030°12'0 0.0
2014-Oct-16 18:28N 59°53' E 030°12'0 0.0
2014-Oct-16 17:10N 59°53' E 030°12'0 0.0
2014-Oct-16 16:33N 59°53' E 030°12'0 0.0
2014-Oct-16 15:33N 59°53' E 030°12'0 0.0
2014-Oct-16 14:20N 59°53' E 030°12'0 0.0
2014-Oct-16 13:17N 59°53' E 030°12'0 0.0
2014-Oct-16 12:32N 59°53' E 030°12'0 0.1
2014-Oct-16 11:31N 59°53' E 030°12'0 0.0
2014-Oct-16 08:33N 59°53' E 030°12'0 0.0
2014-Oct-16 06:31N 59°53' E 030°12'0 0.0
2014-Oct-16 05:33N 59°53' E 030°12'0 0.0
2014-Oct-16 03:33N 59°53' E 030°12'1 0.8
2014-Oct-16 02:33N 59°53' E 030°10'8714.0
2014-Oct-15 20:21N 60°02' E 027°18'1215.2
2014-Oct-15 19:34N 59°58' E 026°55'1414.1
2014-Oct-15 18:33N 60°00' E 026°27'  

Dump ship's entire track history